createdAt,value
2022-08-03T00:01:46.760Z,99076.50
2022-08-03T00:04:14.799Z,99078.34
2022-08-03T00:06:42.900Z,99077.03
2022-08-03T00:09:11.768Z,99076.22
2022-08-03T00:11:40.139Z,99073.44
2022-08-03T00:14:08.492Z,99074.22
2022-08-03T00:16:36.715Z,99080.41
2022-08-03T00:19:06.190Z,99089.34
2022-08-03T00:21:34.228Z,99083.41
2022-08-03T00:24:02.312Z,99080.59
2022-08-03T00:26:31.750Z,99084.06
2022-08-03T00:28:59.775Z,99084.00
2022-08-03T00:31:40.138Z,99088.25
2022-08-03T00:34:17.149Z,99091.72
2022-08-03T00:36:57.931Z,99087.81
2022-08-03T00:39:27.327Z,99095.63
2022-08-03T00:41:55.469Z,99093.66
2022-08-03T00:44:23.533Z,99085.47
2022-08-03T00:46:51.510Z,99086.63
2022-08-03T00:49:21.002Z,99094.69
2022-08-03T00:51:49.474Z,99093.84
2022-08-03T00:54:17.641Z,99093.03
2022-08-03T00:56:59.910Z,99094.22
2022-08-03T00:59:28.875Z,99098.44
2022-08-03T01:01:57.164Z,99096.09
2022-08-03T01:04:26.642Z,99092.56
2022-08-03T01:07:03.028Z,99093.38
2022-08-03T01:09:39.379Z,99094.50
2022-08-03T01:12:15.540Z,99092.06
2022-08-03T01:14:50.333Z,99085.41
2022-08-03T01:17:24.564Z,99100.59
2022-08-03T01:20:01.944Z,99097.69
2022-08-03T01:23:12.941Z,99084.00
2022-08-03T01:25:56.538Z,99076.00
2022-08-03T01:28:40.283Z,99088.06
2022-08-03T01:31:12.842Z,99090.28
2022-08-03T01:33:44.216Z,99086.53
2022-08-03T01:36:15.704Z,99090.88
2022-08-03T01:38:48.202Z,99087.56
2022-08-03T01:41:21.314Z,99085.94
2022-08-03T01:44:27.143Z,99089.78
2022-08-03T01:46:47.654Z,99077.59
2022-08-03T01:49:18.301Z,99088.47
2022-08-03T01:51:58.471Z,99086.06
2022-08-03T01:54:36.190Z,99094.22
2022-08-03T01:57:05.145Z,99091.38
2022-08-03T01:59:37.713Z,99081.97
2022-08-03T02:02:28.677Z,99083.47
2022-08-03T02:04:59.788Z,99083.41
2022-08-03T02:07:29.042Z,99086.50
2022-08-03T02:09:59.531Z,99078.69
2022-08-03T02:12:30.003Z,99082.53
2022-08-03T02:14:59.976Z,99084.41
2022-08-03T02:17:39.710Z,99090.22
2022-08-03T02:20:09.683Z,99084.69
2022-08-03T02:22:41.152Z,99092.72
2022-08-03T02:25:10.452Z,99097.78
2022-08-03T02:27:43.828Z,99086.78
2022-08-03T02:30:14.633Z,99096.84
2022-08-03T02:32:49.880Z,99090.16
2022-08-03T02:35:19.716Z,99095.97
2022-08-03T02:37:53.913Z,99088.06
2022-08-03T02:40:25.686Z,99095.03
2022-08-03T02:42:59.093Z,99091.78
2022-08-03T02:45:28.871Z,99095.94
2022-08-03T02:48:02.049Z,99094.66
2022-08-03T02:50:31.964Z,99101.16
2022-08-03T02:53:01.274Z,99094.41
2022-08-03T02:55:30.699Z,99093.44
2022-08-03T02:58:01.584Z,99085.13
2022-08-03T03:00:30.943Z,99092.47
2022-08-03T03:03:02.758Z,99088.97
2022-08-03T03:05:56.337Z,99099.16
2022-08-03T03:08:26.007Z,99098.09
2022-08-03T03:10:55.473Z,99097.84
2022-08-03T03:13:24.387Z,99099.06
2022-08-03T03:15:54.089Z,99108.03
2022-08-03T03:18:25.512Z,99111.09
2022-08-03T03:20:55.247Z,99104.94
2022-08-03T03:23:24.622Z,99112.78
2022-08-03T03:25:54.777Z,99107.41
2022-08-03T03:28:23.432Z,99111.69
2022-08-03T03:30:53.559Z,99123.44
2022-08-03T03:33:23.556Z,99116.81
2022-08-03T03:35:52.032Z,99115.75
2022-08-03T03:38:20.734Z,99115.03
2022-08-03T03:40:49.506Z,99122.50
2022-08-03T03:43:18.882Z,99122.13
2022-08-03T03:45:48.636Z,99122.97
2022-08-03T03:48:16.922Z,99119.78
2022-08-03T03:50:47.342Z,99125.97
2022-08-03T03:53:15.873Z,99123.63
2022-08-03T03:55:59.732Z,99129.53
2022-08-03T03:58:32.269Z,99126.03
2022-08-03T04:01:00.886Z,99130.31
2022-08-03T04:03:29.097Z,99129.97
2022-08-03T04:06:16.008Z,99135.59
2022-08-03T04:09:15.983Z,99133.47
2022-08-03T04:11:50.090Z,99139.94
2022-08-03T04:14:21.204Z,99135.41
2022-08-03T04:16:53.177Z,99147.28
2022-08-03T04:19:27.530Z,99155.25
2022-08-03T04:22:01.364Z,99149.59
2022-08-03T04:24:35.207Z,99152.91
2022-08-03T04:27:08.075Z,99167.16
2022-08-03T04:29:44.781Z,99161.09
2022-08-03T04:32:20.315Z,99161.69
2022-08-03T04:34:48.631Z,99159.22
2022-08-03T04:37:27.634Z,99162.19
2022-08-03T04:39:59.703Z,99160.94
2022-08-03T04:42:28.812Z,99167.06
2022-08-03T04:45:01.343Z,99159.09
2022-08-03T04:47:32.154Z,99158.22
2022-08-03T04:50:01.910Z,99158.84
2022-08-03T04:52:32.127Z,99158.31
2022-08-03T04:55:00.312Z,99160.47
2022-08-03T04:57:28.366Z,99163.81
2022-08-03T05:00:02.098Z,99162.41
2022-08-03T05:02:32.321Z,99167.25
2022-08-03T05:05:00.915Z,99162.69
2022-08-03T05:07:29.325Z,99165.53
2022-08-03T05:10:14.880Z,99167.97
2022-08-03T05:12:45.321Z,99169.72
2022-08-03T05:15:13.866Z,99172.63
2022-08-03T05:17:42.931Z,99172.31
2022-08-03T05:20:12.447Z,99170.09
2022-08-03T05:22:40.636Z,99176.03
2022-08-03T05:25:19.231Z,99174.94
2022-08-03T05:27:48.061Z,99177.38
2022-08-03T05:30:26.758Z,99178.22
2022-08-03T05:33:01.783Z,99180.28
2022-08-03T05:35:57.499Z,99186.97
2022-08-03T05:38:24.140Z,99187.03
2022-08-03T05:41:22.294Z,99176.09
2022-08-03T05:43:46.366Z,99176.53
2022-08-03T05:46:14.685Z,99182.47
2022-08-03T05:48:43.278Z,99189.59
2022-08-03T05:51:12.457Z,99190.78
2022-08-03T05:53:40.893Z,99186.53
2022-08-03T05:56:14.085Z,99184.97
2022-08-03T05:58:44.786Z,99186.19
2022-08-03T06:01:13.105Z,99186.59
2022-08-03T06:03:41.571Z,99186.22
2022-08-03T06:06:09.832Z,99188.59
2022-08-03T06:08:38.303Z,99187.84
2022-08-03T06:11:06.443Z,99193.34
2022-08-03T06:13:36.769Z,99186.66
2022-08-03T06:16:05.333Z,99186.63
2022-08-03T06:18:33.468Z,99187.38
2022-08-03T06:21:14.801Z,99191.28
2022-08-03T06:23:53.452Z,99191.22
2022-08-03T06:26:27.907Z,99190.41
2022-08-03T06:28:57.649Z,99180.16
2022-08-03T06:31:33.133Z,99184.44
2022-08-03T06:34:33.441Z,99188.75
2022-08-03T06:36:52.228Z,99185.16
2022-08-03T06:39:21.066Z,99180.75
2022-08-03T06:41:52.509Z,99187.44
2022-08-03T06:44:22.028Z,99186.16
2022-08-03T06:46:51.226Z,99181.63
2022-08-03T06:49:19.601Z,99180.31
2022-08-03T06:52:06.209Z,99188.94
2022-08-03T06:54:36.117Z,99184.94
2022-08-03T06:57:04.819Z,99181.66
2022-08-03T07:00:08.499Z,99185.41
2022-08-03T07:02:22.425Z,99186.34
2022-08-03T07:04:50.806Z,99179.44
2022-08-03T07:07:19.348Z,99178.44
2022-08-03T07:09:57.830Z,99178.75
2022-08-03T07:12:28.093Z,99180.16
2022-08-03T07:15:01.192Z,99170.88
2022-08-03T07:17:31.402Z,99175.78
2022-08-03T07:19:59.834Z,99175.63
2022-08-03T07:22:28.482Z,99175.94
2022-08-03T07:24:56.802Z,99172.69
2022-08-03T07:27:27.019Z,99175.69
2022-08-03T07:29:55.319Z,99168.84
2022-08-03T07:32:25.488Z,99169.06
2022-08-03T07:34:57.073Z,99168.44
2022-08-03T07:37:28.512Z,99174.13
2022-08-03T07:39:56.526Z,99161.50
2022-08-03T07:42:24.627Z,99159.09
2022-08-03T07:44:52.736Z,99162.94
2022-08-03T07:47:22.803Z,99168.59
2022-08-03T07:49:52.430Z,99164.94
2022-08-03T07:52:38.084Z,99165.22
2022-08-03T07:55:07.575Z,99162.94
2022-08-03T07:57:35.647Z,99161.59
2022-08-03T08:00:05.167Z,99159.88
2022-08-03T08:02:33.223Z,99159.72
2022-08-03T08:05:05.787Z,99162.84
2022-08-03T08:07:34.371Z,99154.38
2022-08-03T08:10:02.557Z,99162.72
2022-08-03T08:12:30.548Z,99162.72
2022-08-03T08:14:58.660Z,99156.22
2022-08-03T08:17:26.617Z,99152.16
2022-08-03T08:19:54.763Z,99158.66
2022-08-03T08:22:30.414Z,99159.16
2022-08-03T08:25:01.199Z,99159.34
2022-08-03T08:28:25.302Z,99157.25
2022-08-03T08:30:19.597Z,99152.13
2022-08-03T08:32:48.216Z,99159.16
2022-08-03T08:35:16.832Z,99163.06
2022-08-03T08:37:51.268Z,99160.19
2022-08-03T08:40:21.994Z,99163.25
2022-08-03T08:42:59.200Z,99159.41
2022-08-03T08:45:27.982Z,99157.84
2022-08-03T08:48:01.877Z,99155.91
2022-08-03T08:50:33.503Z,99157.31
2022-08-03T08:53:04.663Z,99151.06
2022-08-03T08:55:59.645Z,99147.56
2022-08-03T08:58:24.409Z,99151.16
2022-08-03T09:00:52.812Z,99149.22
2022-08-03T09:03:25.245Z,99150.34
2022-08-03T09:06:00.097Z,99148.19
2022-08-03T09:08:30.494Z,99149.72
2022-08-03T09:10:58.742Z,99137.22
2022-08-03T09:13:26.845Z,99139.56
2022-08-03T09:16:16.386Z,99136.81
2022-08-03T09:18:46.430Z,99132.41
2022-08-03T09:21:33.528Z,99129.31
2022-08-03T09:24:08.468Z,99132.78
2022-08-03T09:26:41.404Z,99123.63
2022-08-03T09:29:14.889Z,99115.97
2022-08-03T09:31:45.840Z,99127.78
2022-08-03T09:34:16.124Z,99125.31
2022-08-03T09:36:46.303Z,99125.28
2022-08-03T09:39:17.428Z,99122.19
2022-08-03T09:41:47.020Z,99116.84
2022-08-03T09:44:24.211Z,99115.38
2022-08-03T09:46:55.755Z,99113.78
2022-08-03T09:49:24.371Z,99111.00
2022-08-03T09:52:32.692Z,99112.34
2022-08-03T09:54:42.994Z,99106.22
2022-08-03T09:57:22.968Z,99105.22
2022-08-03T09:59:53.928Z,99100.78
2022-08-03T10:02:31.240Z,99100.00
2022-08-03T10:04:59.260Z,99107.13
2022-08-03T10:07:27.454Z,99096.13
2022-08-03T10:09:58.466Z,99097.41
2022-08-03T10:12:48.821Z,99096.84
2022-08-03T10:16:23.485Z,99091.94
2022-08-03T10:18:05.942Z,99093.88
2022-08-03T10:20:39.018Z,99096.59
2022-08-03T10:23:10.377Z,99090.06
2022-08-03T10:25:43.844Z,99096.38
2022-08-03T10:28:16.214Z,99086.22
2022-08-03T10:30:54.136Z,99089.09
2022-08-03T10:33:49.719Z,99084.38
2022-08-03T10:36:16.504Z,99089.03
2022-08-03T10:38:52.600Z,99074.00
2022-08-03T10:41:24.370Z,99076.50
2022-08-03T10:43:57.275Z,99068.53
2022-08-03T10:46:27.595Z,99069.59
2022-08-03T10:48:56.793Z,99069.31
2022-08-03T10:51:30.528Z,99070.53
2022-08-03T10:53:59.239Z,99073.47
2022-08-03T10:57:08.772Z,99070.84
2022-08-03T11:00:03.768Z,99072.19
2022-08-03T11:03:07.173Z,99061.00
2022-08-03T11:05:36.957Z,99060.06
2022-08-03T11:08:32.314Z,99053.22
2022-08-03T11:11:03.243Z,99061.94
2022-08-03T11:13:33.968Z,99057.44
2022-08-03T11:16:07.198Z,99057.91
2022-08-03T11:18:36.706Z,99050.28
2022-08-03T11:21:04.973Z,99045.72
2022-08-03T11:24:02.616Z,99049.44
2022-08-03T11:26:33.179Z,99053.41
2022-08-03T11:29:30.303Z,99036.78
2022-08-03T11:31:58.980Z,99026.38
2022-08-03T11:34:27.582Z,99042.28
2022-08-03T11:37:22.692Z,99023.53
2022-08-03T11:39:54.637Z,99025.72
2022-08-03T11:42:45.741Z,99022.53
2022-08-03T11:45:16.142Z,99023.13
2022-08-03T11:47:51.161Z,99017.22
2022-08-03T11:50:21.502Z,99015.00
2022-08-03T11:52:51.969Z,99006.69
2022-08-03T11:55:22.278Z,99008.88
2022-08-03T11:59:01.382Z,99012.09
2022-08-03T12:00:40.561Z,99011.94
2022-08-03T12:03:11.888Z,99001.13
2022-08-03T12:05:51.415Z,99011.94
2022-08-03T12:08:31.243Z,99009.84
2022-08-03T12:11:00.605Z,99002.56
2022-08-03T12:14:45.436Z,99002.00
2022-08-03T12:16:28.829Z,98997.47
2022-08-03T12:18:58.493Z,98995.41
2022-08-03T12:21:26.718Z,98996.28
2022-08-03T12:24:00.416Z,98989.91
2022-08-03T12:26:28.876Z,98988.00
2022-08-03T12:28:57.043Z,98993.00
2022-08-03T12:31:26.807Z,98981.00
2022-08-03T12:34:02.876Z,98985.88
2022-08-03T12:36:32.620Z,98982.78
2022-08-03T12:39:02.456Z,98985.06
2022-08-03T12:41:35.400Z,98982.91
2022-08-03T12:44:04.690Z,98993.84
2022-08-03T12:46:35.835Z,98988.81
2022-08-03T12:49:11.277Z,98983.69
2022-08-03T12:51:57.237Z,98984.63
2022-08-03T12:54:27.182Z,98983.16
2022-08-03T12:56:59.453Z,98980.84
2022-08-03T12:59:34.922Z,98985.44
2022-08-03T13:02:09.688Z,98978.00
2022-08-03T13:04:38.177Z,98979.31
2022-08-03T13:07:12.629Z,98979.28
2022-08-03T13:09:44.296Z,98982.63
2022-08-03T13:12:14.121Z,98981.09
2022-08-03T13:14:43.260Z,98986.16
2022-08-03T13:17:13.179Z,98986.72
2022-08-03T13:19:41.833Z,98995.97
2022-08-03T13:22:14.266Z,98988.53
2022-08-03T13:24:42.967Z,98990.88
2022-08-03T13:28:01.129Z,98994.56
2022-08-03T13:30:00.059Z,98994.94
2022-08-03T13:32:29.509Z,98992.03
2022-08-03T13:34:57.536Z,98991.91
2022-08-03T13:37:25.979Z,98988.97
2022-08-03T13:39:58.697Z,98992.31
2022-08-03T13:42:29.952Z,98985.59
2022-08-03T13:44:58.102Z,98990.66
2022-08-03T13:47:26.282Z,98993.84
2022-08-03T13:50:01.437Z,98996.19
2022-08-03T13:52:35.603Z,98991.47
2022-08-03T13:55:06.994Z,98990.28
2022-08-03T13:58:06.522Z,98997.44
2022-08-03T14:00:28.995Z,98983.31
2022-08-03T14:03:05.094Z,98984.81
2022-08-03T14:05:38.398Z,98990.53
2022-08-03T14:08:07.362Z,98984.25
2022-08-03T14:10:36.752Z,98993.09
2022-08-03T14:13:05.520Z,98992.91
2022-08-03T14:15:37.856Z,98993.50
2022-08-03T14:18:12.754Z,98988.50
2022-08-03T14:20:50.059Z,98988.41
2022-08-03T14:23:18.689Z,98980.34
2022-08-03T14:25:51.705Z,98973.66
2022-08-03T14:28:22.693Z,98966.88
2022-08-03T14:30:51.394Z,98958.97
2022-08-03T14:33:19.581Z,98956.41
2022-08-03T14:35:49.446Z,98943.47
2022-08-03T14:38:18.477Z,98946.56
2022-08-03T14:40:47.142Z,98937.09
2022-08-03T14:43:15.472Z,98924.22
2022-08-03T14:45:45.363Z,98921.69
2022-08-03T14:50:32.571Z,98921.97
2022-08-03T14:51:03.422Z,98916.44
2022-08-03T14:53:31.455Z,98911.34
2022-08-03T14:55:59.605Z,98917.41
2022-08-03T14:58:27.959Z,98903.91
2022-08-03T15:00:57.256Z,98910.09
2022-08-03T15:03:26.403Z,98904.38
2022-08-03T15:05:55.715Z,98913.16
2022-08-03T15:08:26.997Z,98915.25
2022-08-03T15:10:55.709Z,98921.88
2022-08-03T15:13:25.388Z,98918.69
2022-08-03T15:15:53.672Z,98915.19
2022-08-03T15:18:21.722Z,98914.06
2022-08-03T15:20:50.915Z,98908.38
2022-08-03T15:23:19.949Z,98903.56
2022-08-03T15:26:30.240Z,98899.53
2022-08-03T15:28:37.889Z,98900.13
2022-08-03T15:31:06.947Z,98898.22
2022-08-03T15:33:35.357Z,98897.72
2022-08-03T15:36:04.204Z,98884.16
2022-08-03T15:38:32.203Z,98888.41
2022-08-03T15:41:01.751Z,98884.00
2022-08-03T15:43:29.899Z,98880.25
2022-08-03T15:46:27.677Z,98885.41
2022-08-03T15:48:46.868Z,98874.50
2022-08-03T15:51:15.284Z,98878.31
2022-08-03T15:53:43.428Z,98887.81
2022-08-03T15:56:16.800Z,98875.53
2022-08-03T15:59:10.751Z,98882.97
2022-08-03T16:01:34.979Z,98885.91
2022-08-03T16:04:03.109Z,98881.88
2022-08-03T16:06:35.478Z,98889.16
2022-08-03T16:09:23.949Z,98883.22
2022-08-03T16:11:56.351Z,98875.09
2022-08-03T16:14:32.350Z,98883.06
2022-08-03T16:17:01.502Z,98881.25
2022-08-03T16:19:29.435Z,98882.69
2022-08-03T16:21:57.419Z,98887.25
2022-08-03T16:24:27.896Z,98883.50
2022-08-03T16:26:58.061Z,98876.28
2022-08-03T16:29:28.623Z,98884.84
2022-08-03T16:31:56.712Z,98886.13
2022-08-03T16:34:24.848Z,98884.88
2022-08-03T16:36:54.696Z,98884.84
2022-08-03T16:39:22.985Z,98888.38
2022-08-03T16:41:53.779Z,98883.50
2022-08-03T16:44:31.765Z,98886.31
2022-08-03T16:46:59.905Z,98885.63
2022-08-03T16:49:53.713Z,98880.66
2022-08-03T16:52:16.818Z,98888.59
2022-08-03T16:54:52.551Z,98901.06
2022-08-03T16:57:55.639Z,98882.66
2022-08-03T17:00:32.874Z,98882.84
2022-08-03T17:03:18.954Z,98894.59
2022-08-03T17:05:52.951Z,98892.22
2022-08-03T17:08:27.147Z,98897.56
2022-08-03T17:10:56.308Z,98893.72
2022-08-03T17:13:38.801Z,98902.44
2022-08-03T17:16:12.159Z,98899.50
2022-08-03T17:18:50.586Z,98903.22
2022-08-03T17:21:24.241Z,98904.47
2022-08-03T17:23:58.728Z,98909.56
2022-08-03T17:26:30.674Z,98908.06
2022-08-03T17:29:12.925Z,98911.28
2022-08-03T17:31:49.359Z,98914.38
2022-08-03T17:34:18.821Z,98915.38
2022-08-03T17:37:05.386Z,98919.47
2022-08-03T17:39:59.084Z,98918.88
2022-08-03T17:42:38.848Z,98913.44
2022-08-03T17:45:07.405Z,98922.09
2022-08-03T17:47:42.615Z,98923.22
2022-08-03T17:50:24.322Z,98916.84
2022-08-03T17:53:07.581Z,98921.34
2022-08-03T17:55:59.688Z,98923.63
2022-08-03T17:58:52.602Z,98926.56
2022-08-03T18:02:06.181Z,98922.34
2022-08-03T18:04:40.488Z,98934.69
2022-08-03T18:07:12.630Z,98946.06
2022-08-03T18:10:04.899Z,98943.13
2022-08-03T18:12:45.355Z,98949.84
2022-08-03T18:15:21.321Z,98942.50
2022-08-03T18:20:45.670Z,98963.28
2022-08-03T18:23:25.243Z,98966.50
2022-08-03T18:26:06.876Z,98970.06
2022-08-03T18:28:38.411Z,98972.94
2022-08-03T18:31:07.454Z,98971.53
2022-08-03T18:34:18.213Z,98982.13
2022-08-03T18:36:31.787Z,98976.25
2022-08-03T18:39:19.840Z,98987.34
2022-08-03T18:41:48.032Z,98984.78
2022-08-03T18:44:52.511Z,98996.81
2022-08-03T18:47:19.213Z,98992.66
2022-08-03T18:49:58.715Z,98997.16
2022-08-03T18:52:37.325Z,98994.97
2022-08-03T18:55:20.814Z,99000.72
2022-08-03T18:58:05.334Z,99004.16
2022-08-03T19:00:54.220Z,99008.25
2022-08-03T19:03:42.807Z,99013.22
2022-08-03T19:06:20.286Z,99012.97
2022-08-03T19:08:55.685Z,99015.16
2022-08-03T19:11:27.855Z,99016.25
2022-08-03T19:14:00.354Z,99021.97
2022-08-03T19:16:35.968Z,99023.66
2022-08-03T19:19:11.035Z,99023.50
2022-08-03T19:21:42.816Z,99026.38
2022-08-03T19:24:17.286Z,99025.75
2022-08-03T19:26:52.234Z,99039.72
2022-08-03T19:29:24.496Z,99034.66
2022-08-03T19:32:17.606Z,99031.97
2022-08-03T19:34:46.630Z,99037.63
2022-08-03T19:37:15.649Z,99033.81
2022-08-03T19:39:45.244Z,99037.44
2022-08-03T19:42:31.145Z,99039.09
2022-08-03T19:45:03.196Z,99039.56
2022-08-03T19:47:46.740Z,99034.53
2022-08-03T19:50:14.927Z,99039.38
2022-08-03T19:52:46.202Z,99047.34
2022-08-03T19:55:17.143Z,99038.72
2022-08-03T19:57:49.390Z,99036.44
2022-08-03T20:00:19.980Z,99041.97
2022-08-03T20:02:55.089Z,99044.06
2022-08-03T20:05:23.300Z,99050.50
2022-08-03T20:07:51.449Z,99047.06
2022-08-03T20:10:21.356Z,99049.53
2022-08-03T20:12:50.078Z,99051.94
2022-08-03T20:15:30.945Z,99046.44
2022-08-03T20:18:00.858Z,99052.00
2022-08-03T20:20:30.971Z,99043.00
2022-08-03T20:23:01.303Z,99049.72
2022-08-03T20:25:37.971Z,99050.97
2022-08-03T20:28:13.499Z,99043.53
2022-08-03T20:30:43.868Z,99053.88
2022-08-03T20:33:12.340Z,99052.34
2022-08-03T20:35:48.935Z,99056.34
2022-08-03T20:38:18.636Z,99053.63
2022-08-03T20:40:48.740Z,99048.56
2022-08-03T20:43:16.982Z,99048.19
2022-08-03T20:45:59.099Z,99055.34
2022-08-03T20:48:37.508Z,99054.16
2022-08-03T20:51:19.764Z,99055.78
2022-08-03T20:53:59.524Z,99056.63
2022-08-03T20:56:34.153Z,99052.69
2022-08-03T20:59:04.208Z,99055.88
2022-08-03T21:01:36.224Z,99057.50
2022-08-03T21:04:07.040Z,99056.34
2022-08-03T21:06:45.498Z,99055.19
2022-08-03T21:09:19.682Z,99058.34
2022-08-03T21:11:51.544Z,99057.59
2022-08-03T21:13:05.926Z,98947.78
2022-08-03T21:14:24.231Z,99059.94
2022-08-03T21:16:54.095Z,99062.31
2022-08-03T21:19:23.306Z,99059.16
2022-08-03T21:21:51.673Z,99051.69
2022-08-03T21:24:24.675Z,99060.38
2022-08-03T21:26:55.729Z,99054.84
2022-08-03T21:29:24.446Z,99058.03
2022-08-03T21:31:52.621Z,99059.59
2022-08-03T21:34:21.963Z,99062.38
2022-08-03T21:36:50.456Z,99067.88
2022-08-03T21:39:18.771Z,99068.28
2022-08-03T21:41:47.378Z,99065.53
2022-08-03T21:44:25.156Z,99066.34
2022-08-03T21:46:58.705Z,99061.63
2022-08-03T21:50:04.786Z,99069.50
2022-08-03T21:52:22.133Z,99066.31
2022-08-03T21:54:52.120Z,99069.44
2022-08-03T21:57:23.373Z,99075.69
2022-08-03T21:59:56.644Z,99069.00
2022-08-03T22:02:31.322Z,99061.53
2022-08-03T22:05:00.393Z,99066.63
2022-08-03T22:07:33.736Z,99077.22
2022-08-03T22:10:05.637Z,99080.38
2022-08-03T22:12:34.220Z,99076.03
2022-08-03T22:15:06.405Z,99067.78
2022-08-03T22:17:55.173Z,99074.81
2022-08-03T22:20:25.626Z,99069.28
2022-08-03T22:22:57.062Z,99067.31
2022-08-03T22:25:29.051Z,99069.25
2022-08-03T22:27:58.348Z,99072.00
2022-08-03T22:30:28.232Z,99072.00
2022-08-03T22:32:57.708Z,99073.56
2022-08-03T22:35:27.833Z,99077.06
2022-08-03T22:37:58.485Z,99073.19
2022-08-03T22:40:28.424Z,99078.66
2022-08-03T22:42:57.403Z,99077.50
2022-08-03T22:46:06.171Z,99076.72
2022-08-03T22:48:17.912Z,99077.88
2022-08-03T22:50:47.195Z,99074.34
2022-08-03T22:53:19.349Z,99087.69
2022-08-03T22:55:49.086Z,99073.13
2022-08-03T22:58:17.589Z,99071.91
2022-08-03T23:00:53.798Z,99085.63
2022-08-03T23:03:59.038Z,99077.69
2022-08-03T23:06:16.553Z,99073.72
2022-08-03T23:08:47.402Z,99076.41
2022-08-03T23:11:18.896Z,99076.34
2022-08-03T23:13:48.501Z,99070.03
2022-08-03T23:16:29.299Z,99076.22
2022-08-03T23:19:06.598Z,99075.78
2022-08-03T23:21:53.534Z,99074.19
2022-08-03T23:24:30.435Z,99076.47
2022-08-03T23:26:59.240Z,99076.06
2022-08-03T23:29:27.791Z,99073.69
2022-08-03T23:31:57.397Z,99068.94
2022-08-03T23:34:45.883Z,99072.84
2022-08-03T23:37:15.579Z,99071.59
2022-08-03T23:39:45.780Z,99079.78
2022-08-03T23:42:15.009Z,99084.72
2022-08-03T23:44:45.287Z,99079.16
2022-08-03T23:47:13.325Z,99090.81
2022-08-03T23:49:43.174Z,99090.44
2022-08-03T23:52:16.607Z,99095.53
2022-08-03T23:54:59.412Z,99091.16
2022-08-03T23:57:34.053Z,99084.84
